Time;durP1;ratioP1;P1;durP2;ratioP2;P2;SDS_P1;SDS_P2;PMS_P1;PMS_P2;Temp;Humidity;BMP_temperature;BMP_pressure;BME280_temperature;BME280_humidity;BME280_pressure;Samples;Min_cycle;Max_cycle;Signal;HPM_P1;HPM_P2
2022/07/08 00:02:19;;;;;;;14.88;4.95;;;17.40;99.90;;;17.83;64.89;103016.06;5054132;28;20048;-64
2022/07/08 00:04:48;;;;;;;10.15;4.20;;;17.40;99.90;;;17.79;65.45;103010.69;5054044;28;20045;-63
2022/07/08 00:07:16;;;;;;;13.63;4.10;;;17.40;99.90;;;17.71;65.72;103007.16;5054292;28;20037;-64
2022/07/08 00:09:46;;;;;;;8.27;3.95;;;17.30;99.90;;;17.69;65.53;102998.22;5053881;28;20065;-64
2022/07/08 00:12:14;;;;;;;12.13;4.23;;;17.30;99.90;;;17.67;66.00;103010.72;5052942;28;20075;-65
2022/07/08 00:14:42;;;;;;;12.63;4.50;;;17.20;99.90;;;17.63;66.00;103008.94;5053695;28;20036;-64
2022/07/08 00:17:11;;;;;;;8.65;4.22;;;17.20;99.90;;;17.64;66.17;103005.34;5053808;28;20040;-64
2022/07/08 00:19:39;;;;;;;13.25;5.18;;;17.20;99.90;;;17.54;66.74;103007.13;5054298;28;20040;-64
2022/07/08 00:22:08;;;;;;;15.43;4.68;;;17.20;99.90;;;17.62;67.12;103009.81;5053689;28;20048;-64
2022/07/08 00:24:36;;;;;;;16.83;4.55;;;17.10;99.90;;;17.59;68.46;102999.09;5053613;28;20037;-64
2022/07/08 00:27:06;;;;;;;11.07;4.65;;;17.10;99.90;;;17.60;68.94;103003.56;5053903;28;20041;-64
2022/07/08 00:29:34;;;;;;;14.60;4.57;;;17.20;99.90;;;17.58;68.53;102999.97;5053837;28;20075;-64
2022/07/08 00:32:03;;;;;;;18.08;4.93;;;17.10;99.90;;;17.48;68.22;103003.53;5053576;28;20120;-64
2022/07/08 00:34:31;;;;;;;17.48;5.78;;;17.10;99.90;;;17.54;68.12;103011.56;5053447;28;20048;-65
2022/07/08 00:36:59;;;;;;;11.88;5.18;;;17.10;99.90;;;17.50;67.92;103007.13;5053435;28;20055;-64
2022/07/08 00:39:28;;;;;;;13.25;4.82;;;17.10;99.90;;;17.54;67.38;103015.16;5053652;28;20439;-64
2022/07/08 00:41:56;;;;;;;11.90;4.70;;;17.10;99.90;;;17.60;67.11;103008.91;5053303;28;20041;-64
2022/07/08 00:44:26;;;;;;;12.55;5.00;;;17.10;99.90;;;17.35;67.15;102972.28;5053427;28;20131;-64
2022/07/08 00:46:55;;;;;;;13.43;4.75;;;17.10;99.90;;;17.44;68.15;103001.75;5053331;28;20514;-64
2022/07/08 00:49:23;;;;;;;12.90;4.70;;;17.00;99.90;;;17.40;68.94;102999.94;5053383;28;20367;-64
2022/07/08 00:51:52;;;;;;;5.93;4.15;;;17.00;99.90;;;17.46;70.26;102999.97;5053466;28;20095;-64
2022/07/08 00:54:22;;;;;;;6.20;3.95;;;17.00;99.90;;;17.38;71.85;102993.69;5053185;28;20415;-64
2022/07/08 00:56:50;;;;;;;8.95;4.13;;;16.90;99.90;;;17.34;72.95;102994.56;5053193;28;20517;-64
2022/07/08 00:59:20;;;;;;;9.63;3.80;;;16.90;99.90;;;17.29;73.24;103012.38;5053086;28;20037;-65
2022/07/08 01:01:50;;;;;;;8.93;4.30;;;16.90;99.90;;;17.17;73.43;103002.56;5053106;28;20075;-64
2022/07/08 01:04:19;;;;;;;10.13;4.68;;;16.80;99.90;;;17.06;73.68;103001.63;5053298;28;20052;-64
2022/07/08 01:06:47;;;;;;;10.45;4.38;;;16.70;99.90;;;16.97;73.06;102999.84;5052988;28;20060;-64
2022/07/08 01:09:16;;;;;;;11.30;4.80;;;16.60;99.90;;;16.88;73.50;103001.56;5053536;28;20049;-64
2022/07/08 01:11:46;;;;;;;8.48;4.40;;;16.50;99.90;;;16.83;73.64;102995.31;5052895;28;20049;-64
2022/07/08 01:14:16;;;;;;;9.70;4.85;;;16.40;99.90;;;16.86;74.62;103001.56;5052015;28;20106;-64
2022/07/08 01:16:45;;;;;;;9.10;3.77;;;16.30;99.90;;;16.15;74.88;102877.41;5053452;28;20049;-64
2022/07/08 01:19:14;;;;;;;8.73;4.47;;;16.30;99.90;;;16.82;74.64;102999.75;5052720;28;20068;-65
2022/07/08 01:21:44;;;;;;;7.95;3.80;;;16.30;99.90;;;16.72;74.54;102994.38;5053156;28;20482;-64
2022/07/08 01:24:12;;;;;;;6.95;4.18;;;16.30;99.90;;;16.63;74.45;102997.00;5053085;28;20132;-64
2022/07/08 01:26:41;;;;;;;8.95;4.32;;;16.20;99.90;;;16.45;74.15;102987.09;5052793;28;20052;-65
2022/07/08 01:29:09;;;;;;;10.70;4.18;;;16.10;99.90;;;16.38;73.72;102976.34;5057020;28;20453;-64
2022/07/08 01:31:38;;;;;;;11.88;5.05;;;16.00;99.90;;;16.37;74.19;102987.94;5056872;28;20052;-64
2022/07/08 01:34:06;;;;;;;8.77;4.70;;;16.00;99.90;;;16.26;74.79;102988.75;5057428;28;20127;-64
2022/07/08 01:36:34;;;;;;;10.02;4.32;;;15.90;99.90;;;16.28;74.95;103002.09;5056877;28;20037;-64
2022/07/08 01:39:04;;;;;;;6.88;3.92;;;15.80;99.90;;;16.25;74.05;103004.78;5057046;28;20128;-63
2022/07/08 01:41:32;;;;;;;8.67;4.73;;;15.80;99.90;;;16.19;73.48;103002.06;5056785;28;20471;-63
2022/07/08 01:44:01;;;;;;;8.68;4.60;;;15.80;99.90;;;16.21;73.46;103005.63;5056987;28;20372;-64
2022/07/08 01:46:29;;;;;;;12.25;4.30;;;15.80;99.90;;;16.22;73.42;102989.63;5056934;28;20429;-63
2022/07/08 01:48:57;;;;;;;11.93;4.90;;;15.80;99.90;;;16.23;73.11;102990.53;5056824;28;20048;-64
2022/07/08 01:51:26;;;;;;;12.77;4.90;;;15.90;99.90;;;16.34;72.85;102988.78;5055529;28;20470;-64
2022/07/08 01:53:54;;;;;;;20.17;5.60;;;15.90;99.90;;;16.41;72.51;102987.97;5056838;28;20067;-64
2022/07/08 01:56:24;;;;;;;10.68;5.15;;;16.00;99.90;;;16.46;72.47;102983.53;5056466;28;20460;-64
2022/07/08 01:58:52;;;;;;;11.00;4.72;;;16.10;99.90;;;16.43;72.75;102988.88;5056474;28;20147;-64
2022/07/08 02:01:20;;;;;;;12.23;5.72;;;16.10;99.90;;;16.45;72.34;102981.75;5056918;28;20098;-64
2022/07/08 02:03:49;;;;;;;10.13;5.30;;;16.10;99.90;;;16.53;71.93;102985.38;5056331;28;20041;-64
2022/07/08 02:06:17;;;;;;;13.18;6.20;;;16.20;99.90;;;16.57;71.90;102987.19;5056867;28;20047;-64
2022/07/08 02:08:45;;;;;;;12.75;4.95;;;16.20;99.90;;;16.65;71.37;102987.22;5056272;28;20043;-64
2022/07/08 02:14:01;;;;;;;14.30;5.05;;;16.20;99.90;;;16.63;72.29;102989.88;5056253;28;20063;-64
2022/07/08 02:16:29;;;;;;;14.37;5.23;;;16.20;99.90;;;16.66;72.62;102992.59;5056234;28;20045;-64
2022/07/08 02:18:57;;;;;;;11.77;5.30;;;16.20;99.90;;;16.66;73.00;102991.69;5056068;28;20064;-64
2022/07/08 02:21:26;;;;;;;10.88;4.93;;;16.20;99.90;;;16.61;73.64;102982.72;5056308;28;20375;-64
2022/07/08 02:23:54;;;;;;;12.90;5.25;;;16.10;99.90;;;16.65;73.96;102989.88;5056530;28;20131;-64
2022/07/08 02:26:22;;;;;;;9.68;5.30;;;16.20;99.90;;;16.66;74.38;102992.59;5056191;28;20045;-64
2022/07/08 02:28:51;;;;;;;9.55;4.72;;;16.20;99.90;;;16.63;74.80;102986.31;5054867;28;20076;-64
2022/07/08 02:31:20;;;;;;;9.57;4.55;;;16.20;99.90;;;16.63;75.04;102981.88;5055775;28;20103;-63
2022/07/08 02:33:49;;;;;;;9.70;4.87;;;16.20;99.90;;;16.45;75.08;102952.38;5054803;28;20547;-64
2022/07/08 02:36:17;;;;;;;11.73;5.53;;;16.20;99.90;;;16.36;75.13;102972.78;5055722;28;20313;-63
2022/07/08 02:38:45;;;;;;;8.38;4.93;;;16.00;99.90;;;16.37;75.54;102978.16;5055693;28;20037;-63
2022/07/08 02:41:14;;;;;;;10.50;5.30;;;15.90;99.90;;;16.20;75.19;102977.16;5055632;28;20099;-64
2022/07/08 02:43:42;;;;;;;11.00;5.65;;;15.90;99.90;;;15.88;75.25;102970.69;5055627;28;20049;-63
2022/07/08 02:46:10;;;;;;;10.13;5.13;;;15.50;99.90;;;15.79;75.53;102974.19;5055565;28;20045;-64
2022/07/08 02:48:40;;;;;;;6.30;4.20;;;15.40;99.90;;;15.77;75.90;102967.06;5055509;28;20471;-64
2022/07/08 02:51:09;;;;;;;13.10;5.93;;;15.30;99.90;;;15.67;75.91;102970.53;5055984;28;20045;-64
2022/07/08 02:53:37;;;;;;;10.73;5.18;;;15.30;99.90;;;15.70;75.76;102966.09;5055672;28;20647;-64
2022/07/08 02:56:06;;;;;;;11.20;5.88;;;15.30;99.90;;;15.53;75.88;102954.41;5055607;28;20067;-63
2022/07/08 02:58:35;;;;;;;10.75;4.72;;;15.10;99.90;;;15.62;76.12;102954.47;5055623;28;20043;-63
2022/07/08 03:01:03;;;;;;;10.27;4.95;;;15.20;99.90;;;15.63;75.82;102963.38;5055256;28;20048;-64
2022/07/08 03:03:31;;;;;;;9.73;5.68;;;15.20;99.90;;;15.54;75.88;102963.31;5055516;28;20446;-63
2022/07/08 03:06:01;;;;;;;11.82;5.47;;;15.20;99.90;;;15.50;75.61;102974.81;5055211;28;20095;-64
2022/07/08 03:08:29;;;;;;;10.10;5.47;;;15.20;99.90;;;15.43;75.44;102970.31;5055426;28;20069;-63
2022/07/08 03:10:59;;;;;;;12.70;5.97;;;15.20;99.90;;;15.50;75.79;102980.16;5055544;28;20048;-63
2022/07/08 03:13:27;;;;;;;11.73;6.28;;;15.20;99.90;;;15.39;76.12;102972.91;5055050;28;20073;-63
2022/07/08 03:15:55;;;;;;;11.50;6.13;;;15.10;99.90;;;15.45;76.14;102973.91;5055196;28;20057;-63
2022/07/08 03:18:24;;;;;;;16.80;6.03;;;15.10;99.90;;;15.44;76.26;102978.31;5054953;28;20087;-63
2022/07/08 03:20:52;;;;;;;11.85;6.28;;;15.10;99.90;;;15.59;76.20;102962.44;5055221;28;20044;-63
2022/07/08 03:23:22;;;;;;;10.82;5.95;;;15.20;99.90;;;15.65;76.08;102961.59;5054869;28;20077;-64
2022/07/08 03:25:50;;;;;;;12.07;6.10;;;15.20;99.90;;;15.59;76.02;102957.13;5055391;28;20053;-64
2022/07/08 03:28:19;;;;;;;16.50;5.95;;;15.20;99.90;;;15.66;75.81;102952.75;5054751;28;20037;-63
2022/07/08 03:30:47;;;;;;;10.35;6.40;;;15.30;99.90;;;15.78;76.60;102963.47;5054642;28;20077;-63
2022/07/08 03:33:15;;;;;;;9.05;5.80;;;15.40;99.90;;;15.84;76.60;102968.88;5054598;28;20120;-63
2022/07/08 03:35:43;;;;;;;9.40;5.97;;;15.40;99.90;;;15.76;76.24;102967.91;5054811;28;20132;-63
2022/07/08 03:38:12;;;;;;;7.60;5.47;;;15.40;99.90;;;15.88;76.39;102981.38;5055129;28;20041;-64
2022/07/08 03:43:27;;;;;;;7.78;5.75;;;15.50;99.90;;;15.93;77.10;102974.31;5055068;28;20045;-63
2022/07/08 03:45:56;;;;;;;8.65;5.30;;;15.50;99.90;;;15.96;77.43;102975.22;5054297;28;20040;-63
2022/07/08 03:48:32;;;;;;;12.50;6.05;;;15.60;99.90;;;15.93;77.21;102972.50;5054546;28;20119;-63
2022/07/08 03:51:00;;;;;;;15.32;5.72;;;15.60;99.90;;;15.97;77.07;102976.06;5053669;28;20040;-63
2022/07/08 03:53:29;;;;;;;12.80;5.75;;;15.60;99.90;;;16.01;77.11;102976.13;5054149;28;20052;-64
2022/07/08 03:55:59;;;;;;;11.95;5.53;;;15.60;99.90;;;16.04;77.04;102981.50;5054567;28;20051;-63
2022/07/08 03:58:27;;;;;;;11.20;5.70;;;15.60;99.90;;;16.09;77.07;102982.41;5054210;28;20095;-63
2022/07/08 04:00:56;;;;;;;11.63;5.30;;;15.70;99.90;;;16.10;77.12;102973.50;5054369;28;20446;-64
2022/07/08 04:03:24;;;;;;;14.38;6.10;;;15.70;99.90;;;16.15;77.12;102973.53;5054092;28;20095;-63
2022/07/08 04:05:53;;;;;;;14.40;5.72;;;15.70;99.90;;;16.13;76.97;102973.53;5054355;28;20393;-64
2022/07/08 04:08:21;;;;;;;12.43;5.65;;;15.70;99.90;;;16.12;76.85;102973.53;5054300;28;20040;-64
2022/07/08 04:10:50;;;;;;;7.35;5.40;;;15.70;99.90;;;16.16;76.53;102975.34;5053968;28;20075;-64
2022/07/08 04:13:19;;;;;;;10.70;6.00;;;15.80;99.90;;;16.19;76.34;102972.69;5054126;28;20075;-64
2022/07/08 04:15:51;;;;;;;19.00;5.68;;;15.80;99.90;;;16.37;76.33;102978.16;5054141;28;20431;-63
2022/07/08 04:18:20;;;;;;;9.30;5.93;;;15.90;99.90;;;16.41;76.18;102977.28;5053801;28;20052;-64
2022/07/08 04:20:49;;;;;;;14.05;6.10;;;16.00;99.90;;;16.51;76.44;102983.59;5054034;28;20056;-63
2022/07/08 04:23:17;;;;;;;12.73;6.07;;;16.10;99.90;;;16.53;76.58;102980.03;5053681;28;20119;-63
2022/07/08 04:25:45;;;;;;;13.32;5.75;;;16.20;99.90;;;16.60;76.24;102986.31;5053935;28;20045;-64
2022/07/08 04:28:13;;;;;;;14.25;5.65;;;16.20;99.90;;;16.63;75.93;102992.56;5053821;28;20075;-63
2022/07/08 04:30:43;;;;;;;12.02;5.88;;;16.20;99.90;;;16.71;75.95;102990.81;5053631;28;20052;-63
2022/07/08 04:33:12;;;;;;;14.27;6.37;;;16.30;99.90;;;16.78;75.53;102987.25;5053787;28;20041;-64
2022/07/08 04:35:40;;;;;;;16.17;5.03;;;16.40;99.90;;;16.82;75.83;102994.41;5053464;28;20666;-63
2022/07/08 04:38:08;;;;;;;10.50;5.10;;;16.40;99.90;;;16.85;76.05;102993.53;5053470;28;20043;-63
2022/07/08 04:40:37;;;;;;;14.63;5.30;;;16.50;99.90;;;16.90;76.00;103002.47;5053421;28;20037;-64
2022/07/08 04:43:05;;;;;;;12.65;5.68;;;16.50;99.90;;;16.94;75.98;102996.25;5053385;28;20469;-64
2022/07/08 04:45:33;;;;;;;20.25;5.85;;;16.50;99.90;;;16.96;75.80;103008.75;5053339;28;20037;-64
2022/07/08 04:48:03;;;;;;;12.68;5.55;;;16.60;99.90;;;17.02;75.65;103008.75;5053300;28;20123;-63
2022/07/08 04:50:32;;;;;;;17.20;5.38;;;16.60;99.90;;;17.07;75.39;103015.00;5053308;28;20049;-64
2022/07/08 04:53:00;;;;;;;18.42;6.22;;;16.70;99.90;;;17.18;75.33;103020.41;5053439;28;20132;-64
2022/07/08 04:55:29;;;;;;;12.43;5.72;;;16.70;99.90;;;17.26;75.25;103029.34;5052179;28;20045;-64
2022/07/08 04:57:59;;;;;;;17.60;5.97;;;16.80;99.90;;;17.30;76.52;103032.91;5053113;28;20131;-64
2022/07/08 05:00:29;;;;;;;20.08;6.93;;;16.80;99.90;;;17.35;77.43;103015.06;5053934;28;20045;-64
2022/07/08 05:02:57;;;;;;;14.88;5.40;;;16.90;99.90;;;17.63;76.70;103031.25;5051196;28;20095;-64
2022/07/08 05:05:30;;;;;;;10.10;5.18;;;17.10;99.90;;;17.74;75.76;103033.91;5053570;28;20532;-64
2022/07/08 05:07:59;;;;;;;12.30;5.65;;;17.30;99.90;;;17.90;76.52;103049.09;5053603;28;20049;-64
2022/07/08 05:10:28;;;;;;;9.38;5.20;;;17.40;99.90;;;18.06;77.06;103048.19;5052885;28;20445;-64
2022/07/08 05:12:58;;;;;;;11.07;5.35;;;17.70;99.90;;;18.14;78.09;103046.41;5052849;28;20072;-64
2022/07/08 05:15:27;;;;;;;10.80;5.03;;;17.70;99.90;;;18.25;77.78;103044.63;5051828;28;20044;-64
2022/07/08 05:17:56;;;;;;;12.02;5.07;;;17.80;99.90;;;18.30;78.00;103053.53;5052851;28;20052;-64
2022/07/08 05:20:24;;;;;;;10.77;5.38;;;17.80;99.90;;;18.43;78.08;103051.75;5052832;28;20037;-64
2022/07/08 05:22:54;;;;;;;11.30;5.10;;;18.00;99.90;;;18.51;78.50;103048.19;5052781;28;20041;-64
2022/07/08 05:25:22;;;;;;;11.90;4.93;;;18.00;99.90;;;18.63;78.36;103044.56;5052881;28;20045;-64
2022/07/08 05:27:51;;;;;;;11.77;6.28;;;18.10;99.90;;;18.78;78.59;103041.84;5053096;28;20059;-64
2022/07/08 05:30:19;;;;;;;18.33;5.53;;;18.30;99.90;;;18.91;78.16;103043.59;5052742;28;20520;-64
2022/07/08 05:32:47;;;;;;;13.40;5.10;;;18.50;99.90;;;18.99;78.44;103041.75;5052598;28;20033;-63
2022/07/08 05:35:15;;;;;;;14.48;5.68;;;18.50;99.90;;;19.12;77.41;103043.50;5052889;28;20056;-64
2022/07/08 05:37:44;;;;;;;17.15;5.18;;;18.70;99.90;;;19.22;76.55;103049.72;5052663;28;20119;-62
2022/07/08 05:40:14;;;;;;;16.73;5.80;;;18.80;99.90;;;19.29;76.37;103048.78;5052561;28;20037;-63
2022/07/08 05:42:43;;;;;;;17.75;5.35;;;18.90;99.90;;;19.28;75.23;103047.00;5052601;28;20135;-62
2022/07/08 05:45:13;;;;;;;13.43;4.95;;;18.90;99.90;;;19.36;75.55;103047.84;5052575;28;20041;-62
2022/07/08 05:47:41;;;;;;;19.35;5.60;;;19.00;99.90;;;19.57;74.58;103050.41;5051579;28;20106;-63
2022/07/08 05:50:11;;;;;;;12.88;5.30;;;19.20;99.90;;;19.66;74.23;103056.63;5052374;28;20132;-63
2022/07/08 05:52:39;;;;;;;16.40;5.43;;;19.30;99.90;;;19.65;74.04;103051.25;5052700;28;20045;-63
2022/07/08 05:55:09;;;;;;;15.15;5.47;;;19.30;99.90;;;19.69;73.36;103058.38;5053035;28;20037;-63
2022/07/08 05:57:39;;;;;;;16.77;5.63;;;19.30;99.90;;;19.63;72.41;103047.69;5052841;28;20049;-63
2022/07/08 06:00:09;;;;;;;19.48;5.97;;;19.30;99.90;;;19.64;72.28;103055.75;5052458;28;20039;-63
2022/07/08 06:02:40;;;;;;;12.55;5.35;;;19.30;99.90;;;19.83;71.42;103061.88;5052738;28;20049;-64
2022/07/08 06:05:09;;;;;;;14.30;5.15;;;19.40;99.90;;;19.73;71.69;103060.16;5052523;28;20441;-64
2022/07/08 06:07:39;;;;;;;15.10;5.53;;;19.40;99.90;;;19.71;71.16;103057.47;5052341;28;20040;-64
2022/07/08 06:10:09;;;;;;;17.90;5.30;;;19.40;99.90;;;19.73;71.37;103060.16;5052923;28;20053;-64
2022/07/08 06:12:38;;;;;;;14.07;5.47;;;19.40;99.90;;;19.74;71.12;103070.88;5052284;28;20512;-64
2022/07/08 06:15:13;;;;;;;18.85;5.63;;;19.40;99.90;;;19.62;71.49;103072.78;5055854;28;20044;-64
2022/07/08 06:17:42;;;;;;;14.55;5.18;;;19.30;99.90;;;19.50;72.30;103027.19;5056087;28;20067;-64
2022/07/08 06:20:12;;;;;;;14.98;5.10;;;19.30;99.90;;;19.80;72.11;103083.41;5055940;28;20072;-64
2022/07/08 06:22:49;;;;;;;17.30;5.13;;;19.50;99.90;;;19.79;71.62;103081.59;5056072;28;20506;-64
2022/07/08 06:25:18;;;;;;;13.73;4.88;;;19.50;99.90;;;19.93;71.21;103081.50;5055942;28;20095;-63
2022/07/08 06:27:47;;;;;;;14.90;5.25;;;19.60;99.90;;;20.05;71.25;103079.63;5056098;28;20297;-62
2022/07/08 06:30:16;;;;;;;14.50;4.57;;;19.70;99.90;;;20.28;69.75;103080.34;5054882;28;20052;-62
2022/07/08 06:32:44;;;;;;;11.23;4.97;;;20.00;99.90;;;20.23;69.02;103071.41;5055763;28;20294;-61
2022/07/08 06:35:13;;;;;;;13.15;5.25;;;20.00;99.90;;;20.39;69.27;103094.56;5054527;28;20049;-62
2022/07/08 06:37:41;;;;;;;13.38;5.30;;;20.10;99.90;;;20.50;68.92;103095.34;5055736;28;20422;-62
2022/07/08 06:40:11;;;;;;;18.48;5.20;;;20.20;99.90;;;20.71;68.59;103083.50;5056235;28;20049;-63
2022/07/08 06:42:39;;;;;;;15.37;4.87;;;20.40;99.90;;;20.64;66.43;103093.44;5055623;28;20045;-62
2022/07/08 06:45:10;;;;;;;12.27;5.22;;;20.40;99.90;;;20.71;66.43;103096.97;5055854;28;20487;-62
2022/07/08 06:47:38;;;;;;;17.40;5.00;;;20.40;99.90;;;20.67;66.20;103104.13;5055578;28;20037;-62
2022/07/08 06:50:08;;;;;;;16.95;5.07;;;20.40;99.90;;;20.71;64.87;103098.75;5056045;28;20574;-62
2022/07/08 06:52:37;;;;;;;11.70;4.27;;;20.40;99.90;;;20.74;65.10;103099.59;5055368;28;20140;-62
2022/07/08 06:55:06;;;;;;;9.95;4.50;;;20.50;99.90;;;20.77;65.40;103098.69;5055620;28;20362;-63
2022/07/08 06:57:35;;;;;;;14.18;4.50;;;20.50;99.90;;;20.82;65.71;103089.66;5055550;28;20053;-62
2022/07/08 07:00:05;;;;;;;9.70;4.70;;;20.60;99.90;;;20.92;65.42;103093.13;5055513;28;20036;-63
2022/07/08 07:02:51;;;;;;;11.10;4.35;;;20.70;99.90;;;20.74;64.95;103087.94;5055345;28;20049;-62
2022/07/08 07:05:20;;;;;;;11.75;4.70;;;20.50;99.90;;;20.72;64.40;103096.03;5055220;28;20505;-62
2022/07/08 07:07:49;;;;;;;7.80;3.65;;;20.50;99.90;;;20.63;64.83;103097.00;5055093;28;20037;-63
2022/07/08 07:10:17;;;;;;;10.90;4.43;;;20.40;99.90;;;20.77;64.95;103094.16;5055327;28;20106;-64
2022/07/08 07:12:46;;;;;;;13.45;4.60;;;20.40;99.90;;;20.81;63.84;103092.38;5055206;28;20402;-64
2022/07/08 07:15:14;;;;;;;12.55;4.47;;;20.40;99.90;;;20.86;63.73;103087.81;5055245;28;20060;-62
2022/07/08 07:17:43;;;;;;;10.57;4.25;;;20.50;99.90;;;20.94;63.77;103096.69;5055195;28;20124;-63
2022/07/08 07:20:13;;;;;;;9.55;4.05;;;20.60;99.90;;;21.05;63.87;103101.06;5054889;28;20041;-64
2022/07/08 07:22:42;;;;;;;10.48;4.22;;;20.70;99.90;;;21.03;64.06;103093.91;5055138;28;20128;-63
2022/07/08 07:25:10;;;;;;;9.35;4.57;;;20.70;99.90;;;21.12;63.19;103096.47;5054120;28;20053;-62
2022/07/08 07:27:41;;;;;;;13.38;4.07;;;20.80;99.90;;;21.30;63.45;103097.16;5055016;28;20048;-63
2022/07/08 07:30:11;;;;;;;13.60;3.90;;;21.00;99.90;;;21.30;62.52;103088.19;5054957;28;20076;-61
2022/07/08 07:32:39;;;;;;;9.15;3.53;;;21.20;99.90;;;21.48;62.82;103094.22;5053568;28;20045;-61
2022/07/08 07:35:09;;;;;;;11.75;4.00;;;21.20;99.90;;;21.55;63.26;103095.00;5054430;28;20041;-62
2022/07/08 07:37:39;;;;;;;8.85;3.65;;;21.20;99.90;;;21.61;62.02;103092.22;5054635;28;20128;-63
2022/07/08 07:40:08;;;;;;;8.98;3.72;;;21.40;99.90;;;21.58;61.24;103099.47;5054722;28;20076;-63
2022/07/08 07:42:37;;;;;;;10.10;4.07;;;21.40;99.90;;;21.57;61.22;103101.28;5055086;28;20131;-64
2022/07/08 07:45:07;;;;;;;9.40;3.92;;;21.30;99.90;;;21.47;60.76;103099.59;5054662;28;20457;-67
2022/07/08 07:47:35;;;;;;;10.27;4.00;;;21.20;99.90;;;21.50;61.54;103102.28;5054685;28;20041;-65
2022/07/08 07:50:05;;;;;;;9.68;3.78;;;21.20;99.90;;;21.68;61.95;103107.38;5054191;28;20139;-71
2022/07/08 07:52:33;;;;;;;10.73;3.77;;;21.40;99.90;;;21.80;62.43;103109.94;5053415;28;20499;-62
2022/07/08 07:55:04;;;;;;;11.45;4.57;;;21.50;99.90;;;21.81;61.21;103105.44;5054289;28;20041;-63
2022/07/08 07:57:36;;;;;;;10.77;4.18;;;21.50;99.90;;;22.01;61.35;103098.81;5054326;28;20059;-63
2022/07/08 08:00:09;;;;;;;10.25;3.60;;;21.70;99.90;;;22.18;60.73;103102.13;5054531;28;20037;-64
2022/07/08 08:02:40;;;;;;;13.38;4.40;;;21.90;99.90;;;22.30;60.12;103103.72;5054242;28;20071;-63
2022/07/08 08:05:09;;;;;;;8.32;4.18;;;22.00;99.90;;;22.43;59.65;103095.38;5054380;28;20537;-62
2022/07/08 08:07:38;;;;;;;7.60;3.38;;;22.20;99.90;;;22.48;59.16;103079.13;5054366;28;20124;-78
2022/07/08 08:10:11;;;;;;;8.82;3.83;;;22.30;99.90;;;22.40;58.09;103103.53;5054211;28;20045;-61
2022/07/08 08:12:40;;;;;;;11.77;3.60;;;22.20;99.90;;;22.66;58.56;103095.03;5053988;28;20049;-60
2022/07/08 08:15:09;;;;;;;6.60;3.50;;;22.40;99.90;;;22.80;59.59;103097.47;5053793;28;20037;-66
2022/07/08 08:17:38;;;;;;;7.57;3.80;;;22.50;99.90;;;22.92;58.89;103102.59;5054115;28;20079;-62
2022/07/08 08:20:10;;;;;;;10.65;4.15;;;22.60;99.90;;;22.89;58.49;103102.66;5053788;28;20068;-60
2022/07/08 08:22:39;;;;;;;7.40;3.50;;;22.60;99.90;;;23.00;57.17;103097.94;5053954;28;20045;-66
2022/07/08 08:25:29;;;;;;;11.88;4.47;;;22.70;99.90;;;23.05;56.20;103088.81;5053923;28;20045;-64
2022/07/08 08:27:58;;;;;;;8.32;3.72;;;22.80;99.90;;;22.76;56.38;103090.34;5054153;28;20044;-64
2022/07/08 08:30:26;;;;;;;8.93;3.55;;;22.50;99.90;;;22.68;55.44;103089.59;5053634;28;20486;-64
2022/07/08 08:32:55;;;;;;;5.45;3.55;;;22.40;99.90;;;22.24;54.61;103069.66;5053455;28;20107;-65
2022/07/08 08:35:24;;;;;;;6.43;3.53;;;22.10;99.90;;;22.68;53.40;103094.97;5053625;28;20043;-64
2022/07/08 08:37:52;;;;;;;6.28;3.42;;;22.30;99.90;;;22.86;53.76;103097.34;5053513;28;20446;-64
2022/07/08 08:40:22;;;;;;;6.22;3.78;;;22.50;99.90;;;22.79;53.53;103090.25;5053405;28;20574;-65
2022/07/08 08:42:52;;;;;;;7.33;3.40;;;22.50;99.90;;;22.76;53.49;103093.94;5053291;28;20098;-64
2022/07/08 08:45:20;;;;;;;7.43;3.58;;;22.40;99.90;;;22.86;53.11;103094.63;5053481;28;20052;-64
2022/07/08 08:47:51;;;;;;;7.82;3.40;;;22.50;99.90;;;22.83;53.80;103092.88;5053430;28;20053;-64
2022/07/08 08:53:14;;;;;;;7.45;3.45;;;22.50;99.90;;;22.98;54.64;103095.25;5053171;28;20063;-64
2022/07/08 08:55:46;;;;;;;6.95;3.80;;;22.60;99.90;;;22.96;55.29;103080.00;5053013;28;20049;-64
2022/07/08 08:58:17;;;;;;;5.93;3.60;;;22.60;99.90;;;22.96;55.49;103089.00;5053390;28;20049;-64
2022/07/08 09:00:45;;;;;;;8.63;3.53;;;22.60;99.90;;;23.19;54.44;103086.72;5051793;28;20106;-64
2022/07/08 09:03:14;;;;;;;8.00;3.58;;;22.90;99.90;;;23.35;55.35;103091.81;5053286;28;20047;-64
2022/07/08 09:05:43;;;;;;;6.63;3.38;;;23.00;99.90;;;23.21;55.04;103089.38;5052907;28;20090;-64
2022/07/08 09:08:11;;;;;;;10.80;3.90;;;23.00;99.90;;;23.06;55.42;103097.81;5052899;28;20080;-64
2022/07/08 09:10:39;;;;;;;6.80;3.85;;;22.80;99.90;;;23.14;55.81;103090.44;5052891;28;20048;-64
2022/07/08 09:13:11;;;;;;;8.63;4.05;;;22.80;99.90;;;23.29;55.82;103091.00;5051698;28;20605;-64
2022/07/08 09:15:43;;;;;;;6.35;3.88;;;23.00;99.90;;;23.61;55.67;103103.84;5052756;28;20041;-65
2022/07/08 09:18:14;;;;;;;6.30;3.20;;;23.20;99.90;;;23.78;54.89;103096.22;5052859;28;20413;-64
2022/07/08 09:20:46;;;;;;;6.43;3.50;;;23.50;99.90;;;23.96;55.11;103101.16;5052740;28;20091;-64
2022/07/08 09:23:17;;;;;;;7.50;3.72;;;23.60;99.90;;;23.85;53.47;103103.25;5052820;28;20124;-64
2022/07/08 09:25:50;;;;;;;6.88;3.50;;;23.60;99.90;;;23.90;53.55;103104.06;5052815;28;20056;-64
2022/07/08 09:28:31;;;;;;;8.43;3.25;;;23.60;99.90;;;23.87;53.05;103108.63;5052953;28;20356;-64
2022/07/08 09:31:03;;;;;;;7.07;3.42;;;23.60;99.90;;;23.98;51.69;103104.72;5053304;28;20044;-64
2022/07/08 09:33:32;;;;;;;7.32;3.25;;;23.70;99.90;;;24.01;52.94;103104.69;5053069;28;20099;-64
2022/07/08 09:36:03;;;;;;;5.15;3.05;;;23.70;99.90;;;24.17;51.05;103103.41;5052634;28;20041;-64
2022/07/08 09:38:34;;;;;;;;;;;23.90;99.90;;;24.00;49.34;103104.72;5053209;28;20128;-64
2022/07/08 09:41:05;;;;;;;6.28;3.17;;;23.80;99.90;;;23.89;48.29;103107.66;5052626;28;19920;-64
2022/07/08 09:43:35;;;;;;;6.97;2.92;;;23.70;99.90;;;23.85;48.56;103105.06;5052761;28;20098;-64
2022/07/08 09:46:07;;;;;;;4.03;3.00;;;23.60;99.90;;;24.06;48.70;103113.59;5052507;28;20056;-64
2022/07/08 09:48:36;;;;;;;5.13;3.15;;;23.70;99.90;;;24.08;48.29;103102.72;5054072;28;20057;-64
2022/07/08 09:51:07;;;;;;;3.70;2.97;;;23.90;99.90;;;23.97;48.64;103104.78;5056649;28;20453;-64
2022/07/08 09:53:37;;;;;;;7.25;2.90;;;23.70;99.90;;;24.02;49.07;103103.75;5055605;28;20055;-64
2022/07/08 09:56:08;;;;;;;5.97;2.95;;;23.80;99.90;;;24.31;49.56;103111.19;5056703;28;20128;-64
2022/07/08 09:58:37;;;;;;;5.68;3.50;;;24.00;99.90;;;24.15;47.34;103107.97;5056536;28;20398;-64
2022/07/08 10:01:07;;;;;;;5.40;2.92;;;23.90;99.90;;;24.20;47.90;103109.69;5056787;28;20041;-65
2022/07/08 10:03:36;;;;;;;;;;;24.00;99.90;;;24.31;47.52;103099.44;5055731;28;20482;-64
2022/07/08 10:06:05;;;;;;;6.97;3.03;;;24.10;99.90;;;24.17;47.79;103087.19;5056194;28;19921;-65
2022/07/08 10:08:35;;;;;;;5.07;3.22;;;24.00;99.90;;;24.38;47.25;103109.19;5056243;28;20107;-65
2022/07/08 10:11:08;;;;;;;4.53;3.50;;;24.10;99.90;;;24.17;48.75;103094.41;5056384;28;20095;-65
2022/07/08 10:13:37;;;;;;;8.25;3.35;;;24.10;99.90;;;23.91;50.55;103116.63;5056461;28;20071;-64
2022/07/08 10:16:10;;;;;;;5.70;3.10;;;23.80;99.90;;;23.88;50.18;103108.59;5055907;28;20057;-65
2022/07/08 10:18:45;;;;;;;6.18;3.33;;;23.70;99.90;;;24.17;51.17;103107.94;5056158;28;20045;-64
2022/07/08 10:21:18;;;;;;;5.13;3.22;;;23.80;99.90;;;24.12;50.24;103113.44;5056569;28;20049;-64
2022/07/08 10:23:49;;;;;;;6.95;3.05;;;23.80;99.90;;;24.09;49.29;103113.53;5056037;28;20041;-64
2022/07/08 10:26:22;;;;;;;4.43;3.38;;;23.80;99.90;;;24.37;48.81;103115.53;5056469;28;20095;-64